Terminal Aerodrome Forecast
Issued by NWS Sioux Falls, SD

Home | Current Version | Previous Version | Graphics & Text | Print | Product List | Glossary On
Versions: 1 2 3 4 5 6 7 8 9 10 11 12 13 14 15
000
FTUS43 KFSD 191742
TAFHON
TAF
KHON 191742Z 1918/2018 17013KT 3/4SM BR OVC003
      TEMPO 1918/1921 1/2SM FG OVC002
     FM200000 16009KT 3SM BR OVC005
     FM200300 15009KT 2SM -DZ BR OVC003
     FM201000 15009KT 1SM -DZ BR OVC003
     FM201600 15008KT 2SM -DZ BR OVC003=

USA.gov is the U.S. government's official web portal to all federal, state and local government web resources and services.